sensor_id;sensor_type;location;lat;lon;timestamp;temperature;humidity
2212;DHT22;48849;48.758;9.158;2023-07-30T00:01:38;21.20;99.90
2212;DHT22;48849;48.758;9.158;2023-07-30T00:04:05;21.20;99.90
2212;DHT22;48849;48.758;9.158;2023-07-30T00:06:32;21.20;99.90
2212;DHT22;48849;48.758;9.158;2023-07-30T00:08:59;21.10;99.90
2212;DHT22;48849;48.758;9.158;2023-07-30T00:11:27;21.10;99.90
2212;DHT22;48849;48.758;9.158;2023-07-30T00:13:53;21.10;99.90
2212;DHT22;48849;48.758;9.158;2023-07-30T00:16:20;21.10;99.90
2212;DHT22;48849;48.758;9.158;2023-07-30T00:18:47;21.10;99.90
2212;DHT22;48849;48.758;9.158;2023-07-30T00:21:13;21.00;99.90
2212;DHT22;48849;48.758;9.158;2023-07-30T00:23:40;21.00;99.90
2212;DHT22;48849;48.758;9.158;2023-07-30T00:26:07;21.00;99.90
2212;DHT22;48849;48.758;9.158;2023-07-30T00:28:35;21.00;99.90
2212;DHT22;48849;48.758;9.158;2023-07-30T00:31:02;20.90;99.90
2212;DHT22;48849;48.758;9.158;2023-07-30T00:33:28;20.90;99.90
2212;DHT22;48849;48.758;9.158;2023-07-30T00:35:55;20.90;99.90
2212;DHT22;48849;48.758;9.158;2023-07-30T00:38:22;20.90;99.90
2212;DHT22;48849;48.758;9.158;2023-07-30T00:40:49;20.90;99.90
2212;DHT22;48849;48.758;9.158;2023-07-30T00:43:16;20.90;99.90
2212;DHT22;48849;48.758;9.158;2023-07-30T00:45:44;20.90;99.90
2212;DHT22;48849;48.758;9.158;2023-07-30T00:48:12;20.90;99.90
2212;DHT22;48849;48.758;9.158;2023-07-30T00:50:40;20.90;99.90
2212;DHT22;48849;48.758;9.158;2023-07-30T00:53:09;20.90;99.90
2212;DHT22;48849;48.758;9.158;2023-07-30T00:55:35;20.80;99.90
2212;DHT22;48849;48.758;9.158;2023-07-30T00:58:03;20.90;99.90
2212;DHT22;48849;48.758;9.158;2023-07-30T01:00:30;20.80;99.90
2212;DHT22;48849;48.758;9.158;2023-07-30T01:02:59;20.80;99.90
2212;DHT22;48849;48.758;9.158;2023-07-30T01:05:26;20.90;99.90
2212;DHT22;48849;48.758;9.158;2023-07-30T01:07:53;20.90;99.90
2212;DHT22;48849;48.758;9.158;2023-07-30T01:10:20;20.90;99.90
2212;DHT22;48849;48.758;9.158;2023-07-30T01:12:48;20.90;99.90
2212;DHT22;48849;48.758;9.158;2023-07-30T01:15:15;21.00;99.90
2212;DHT22;48849;48.758;9.158;2023-07-30T01:17:42;20.90;99.90
2212;DHT22;48849;48.758;9.158;2023-07-30T01:20:12;20.90;99.90
2212;DHT22;48849;48.758;9.158;2023-07-30T01:22:40;20.90;99.90
2212;DHT22;48849;48.758;9.158;2023-07-30T01:25:07;20.90;99.90
2212;DHT22;48849;48.758;9.158;2023-07-30T01:27:48;20.90;99.90
2212;DHT22;48849;48.758;9.158;2023-07-30T01:30:18;20.90;99.90
2212;DHT22;48849;48.758;9.158;2023-07-30T01:32:49;20.90;99.90
2212;DHT22;48849;48.758;9.158;2023-07-30T01:35:16;20.90;99.90
2212;DHT22;48849;48.758;9.158;2023-07-30T01:37:45;20.90;99.90
2212;DHT22;48849;48.758;9.158;2023-07-30T01:40:13;20.90;99.90
2212;DHT22;48849;48.758;9.158;2023-07-30T01:42:40;20.90;99.90
2212;DHT22;48849;48.758;9.158;2023-07-30T01:45:07;20.90;99.90
2212;DHT22;48849;48.758;9.158;2023-07-30T01:47:34;20.90;99.90
2212;DHT22;48849;48.758;9.158;2023-07-30T01:50:01;20.90;99.90
2212;DHT22;48849;48.758;9.158;2023-07-30T01:52:28;20.90;99.90
2212;DHT22;48849;48.758;9.158;2023-07-30T01:54:56;20.90;99.90
2212;DHT22;48849;48.758;9.158;2023-07-30T01:57:24;20.90;99.90
2212;DHT22;48849;48.758;9.158;2023-07-30T01:59:50;20.90;99.90
2212;DHT22;48849;48.758;9.158;2023-07-30T02:02:17;20.90;99.90
2212;DHT22;48849;48.758;9.158;2023-07-30T02:04:44;20.90;99.90
2212;DHT22;48849;48.758;9.158;2023-07-30T02:07:11;20.90;99.90
2212;DHT22;48849;48.758;9.158;2023-07-30T02:09:37;20.90;99.90
2212;DHT22;48849;48.758;9.158;2023-07-30T02:12:07;20.80;99.90
2212;DHT22;48849;48.758;9.158;2023-07-30T02:14:34;20.90;99.90
2212;DHT22;48849;48.758;9.158;2023-07-30T02:17:01;20.90;99.90
2212;DHT22;48849;48.758;9.158;2023-07-30T02:19:28;20.90;99.90
2212;DHT22;48849;48.758;9.158;2023-07-30T02:21:54;20.90;99.90
2212;DHT22;48849;48.758;9.158;2023-07-30T02:24:21;20.90;99.90
2212;DHT22;48849;48.758;9.158;2023-07-30T02:26:48;20.90;99.90
2212;DHT22;48849;48.758;9.158;2023-07-30T02:29:16;20.80;99.90
2212;DHT22;48849;48.758;9.158;2023-07-30T02:31:43;20.90;99.90
2212;DHT22;48849;48.758;9.158;2023-07-30T02:34:09;21.20;99.90
2212;DHT22;48849;48.758;9.158;2023-07-30T02:36:36;20.90;99.90
2212;DHT22;48849;48.758;9.158;2023-07-30T02:39:03;21.00;99.90
2212;DHT22;48849;48.758;9.158;2023-07-30T02:41:29;20.90;99.90
2212;DHT22;48849;48.758;9.158;2023-07-30T02:43:56;20.90;99.90
2212;DHT22;48849;48.758;9.158;2023-07-30T02:46:24;21.00;99.90
2212;DHT22;48849;48.758;9.158;2023-07-30T02:48:51;21.00;99.90
2212;DHT22;48849;48.758;9.158;2023-07-30T02:51:18;20.80;99.90
2212;DHT22;48849;48.758;9.158;2023-07-30T02:53:44;20.90;99.90
2212;DHT22;48849;48.758;9.158;2023-07-30T02:56:11;21.10;99.90
2212;DHT22;48849;48.758;9.158;2023-07-30T02:58:38;20.80;99.90
2212;DHT22;48849;48.758;9.158;2023-07-30T03:01:05;20.80;99.90
2212;DHT22;48849;48.758;9.158;2023-07-30T03:03:34;20.70;99.90
2212;DHT22;48849;48.758;9.158;2023-07-30T03:06:01;20.70;99.90
2212;DHT22;48849;48.758;9.158;2023-07-30T03:08:28;20.70;99.90
2212;DHT22;48849;48.758;9.158;2023-07-30T03:10:57;20.70;99.90
2212;DHT22;48849;48.758;9.158;2023-07-30T03:13:24;20.70;99.90
2212;DHT22;48849;48.758;9.158;2023-07-30T03:15:51;20.70;99.90
2212;DHT22;48849;48.758;9.158;2023-07-30T03:18:18;20.70;99.90
2212;DHT22;48849;48.758;9.158;2023-07-30T03:20:46;20.70;99.90
2212;DHT22;48849;48.758;9.158;2023-07-30T03:23:12;20.70;99.90
2212;DHT22;48849;48.758;9.158;2023-07-30T03:25:39;20.70;99.90
2212;DHT22;48849;48.758;9.158;2023-07-30T03:28:06;20.70;99.90
2212;DHT22;48849;48.758;9.158;2023-07-30T03:30:33;20.70;99.90
2212;DHT22;48849;48.758;9.158;2023-07-30T03:32:59;20.70;99.90
2212;DHT22;48849;48.758;9.158;2023-07-30T03:35:26;20.70;99.90
2212;DHT22;48849;48.758;9.158;2023-07-30T03:37:54;20.70;99.90
2212;DHT22;48849;48.758;9.158;2023-07-30T03:40:21;21.00;99.90
2212;DHT22;48849;48.758;9.158;2023-07-30T03:42:47;20.60;99.90
2212;DHT22;48849;48.758;9.158;2023-07-30T03:45:15;20.60;99.90
2212;DHT22;48849;48.758;9.158;2023-07-30T03:47:42;20.70;99.90
2212;DHT22;48849;48.758;9.158;2023-07-30T03:50:09;20.70;99.90
2212;DHT22;48849;48.758;9.158;2023-07-30T03:52:36;20.60;99.90
2212;DHT22;48849;48.758;9.158;2023-07-30T03:55:04;20.60;99.90
2212;DHT22;48849;48.758;9.158;2023-07-30T03:57:31;20.70;99.90
2212;DHT22;48849;48.758;9.158;2023-07-30T03:59:58;20.70;99.90
2212;DHT22;48849;48.758;9.158;2023-07-30T04:02:24;20.70;99.90
2212;DHT22;48849;48.758;9.158;2023-07-30T04:04:51;20.60;99.90
2212;DHT22;48849;48.758;9.158;2023-07-30T04:07:18;20.70;99.90
2212;DHT22;48849;48.758;9.158;2023-07-30T04:09:45;20.70;99.90
2212;DHT22;48849;48.758;9.158;2023-07-30T04:12:13;20.60;99.90
2212;DHT22;48849;48.758;9.158;2023-07-30T04:14:39;20.70;99.90
2212;DHT22;48849;48.758;9.158;2023-07-30T04:17:06;20.60;99.90
2212;DHT22;48849;48.758;9.158;2023-07-30T04:19:33;20.70;99.90
2212;DHT22;48849;48.758;9.158;2023-07-30T04:21:59;20.60;99.90
2212;DHT22;48849;48.758;9.158;2023-07-30T04:24:26;20.60;99.90
2212;DHT22;48849;48.758;9.158;2023-07-30T04:26:53;20.60;99.90
2212;DHT22;48849;48.758;9.158;2023-07-30T04:29:21;20.60;99.90
2212;DHT22;48849;48.758;9.158;2023-07-30T04:31:48;20.50;99.90
2212;DHT22;48849;48.758;9.158;2023-07-30T04:34:14;20.70;99.90
2212;DHT22;48849;48.758;9.158;2023-07-30T04:36:41;20.70;99.90
2212;DHT22;48849;48.758;9.158;2023-07-30T04:39:08;20.70;99.90
2212;DHT22;48849;48.758;9.158;2023-07-30T04:41:35;20.80;99.90
2212;DHT22;48849;48.758;9.158;2023-07-30T04:44:01;20.70;99.90
2212;DHT22;48849;48.758;9.158;2023-07-30T04:46:29;20.80;99.90
2212;DHT22;48849;48.758;9.158;2023-07-30T04:48:56;20.70;99.90
2212;DHT22;48849;48.758;9.158;2023-07-30T04:51:23;20.70;99.90
2212;DHT22;48849;48.758;9.158;2023-07-30T04:53:49;20.70;99.90
2212;DHT22;48849;48.758;9.158;2023-07-30T04:56:16;20.70;99.90
2212;DHT22;48849;48.758;9.158;2023-07-30T04:58:43;21.20;99.90
2212;DHT22;48849;48.758;9.158;2023-07-30T05:01:10;20.70;99.90
2212;DHT22;48849;48.758;9.158;2023-07-30T05:03:38;20.70;99.90
2212;DHT22;48849;48.758;9.158;2023-07-30T05:06:05;20.70;99.90
2212;DHT22;48849;48.758;9.158;2023-07-30T05:08:31;20.70;99.90
2212;DHT22;48849;48.758;9.158;2023-07-30T05:10:58;20.70;99.90
2212;DHT22;48849;48.758;9.158;2023-07-30T05:13:25;20.90;99.90
2212;DHT22;48849;48.758;9.158;2023-07-30T05:15:51;20.70;99.90
2212;DHT22;48849;48.758;9.158;2023-07-30T05:18:18;20.70;99.90
2212;DHT22;48849;48.758;9.158;2023-07-30T05:20:47;20.70;99.90
2212;DHT22;48849;48.758;9.158;2023-07-30T05:23:14;20.80;99.90
2212;DHT22;48849;48.758;9.158;2023-07-30T05:25:41;20.70;99.90
2212;DHT22;48849;48.758;9.158;2023-07-30T05:28:07;20.70;99.90
2212;DHT22;48849;48.758;9.158;2023-07-30T05:30:34;20.70;99.90
2212;DHT22;48849;48.758;9.158;2023-07-30T05:33:01;20.70;99.90
2212;DHT22;48849;48.758;9.158;2023-07-30T05:35:27;20.70;99.90
2212;DHT22;48849;48.758;9.158;2023-07-30T05:37:56;20.70;99.90
2212;DHT22;48849;48.758;9.158;2023-07-30T05:40:22;20.90;99.90
2212;DHT22;48849;48.758;9.158;2023-07-30T05:42:49;20.70;99.90
2212;DHT22;48849;48.758;9.158;2023-07-30T05:45:16;20.70;99.90
2212;DHT22;48849;48.758;9.158;2023-07-30T05:47:43;20.70;99.90
2212;DHT22;48849;48.758;9.158;2023-07-30T05:50:10;20.70;99.90
2212;DHT22;48849;48.758;9.158;2023-07-30T05:52:36;20.70;99.90
2212;DHT22;48849;48.758;9.158;2023-07-30T05:55:05;20.70;99.90
2212;DHT22;48849;48.758;9.158;2023-07-30T05:57:32;20.70;99.90
2212;DHT22;48849;48.758;9.158;2023-07-30T05:59:59;20.70;99.90
2212;DHT22;48849;48.758;9.158;2023-07-30T06:02:25;20.70;99.90
2212;DHT22;48849;48.758;9.158;2023-07-30T06:04:52;20.80;99.90
2212;DHT22;48849;48.758;9.158;2023-07-30T06:07:19;20.80;99.90
2212;DHT22;48849;48.758;9.158;2023-07-30T06:09:46;20.80;99.90
2212;DHT22;48849;48.758;9.158;2023-07-30T06:12:14;21.10;99.90
2212;DHT22;48849;48.758;9.158;2023-07-30T06:14:40;20.80;99.90
2212;DHT22;48849;48.758;9.158;2023-07-30T06:17:07;20.90;99.90
2212;DHT22;48849;48.758;9.158;2023-07-30T06:19:34;20.90;99.90
2212;DHT22;48849;48.758;9.158;2023-07-30T06:22:01;21.00;99.90
2212;DHT22;48849;48.758;9.158;2023-07-30T06:24:28;20.90;99.90
2212;DHT22;48849;48.758;9.158;2023-07-30T06:26:55;20.90;99.90
2212;DHT22;48849;48.758;9.158;2023-07-30T06:29:23;21.20;99.90
2212;DHT22;48849;48.758;9.158;2023-07-30T06:31:49;20.90;99.90
2212;DHT22;48849;48.758;9.158;2023-07-30T06:34:16;20.90;99.90
2212;DHT22;48849;48.758;9.158;2023-07-30T06:36:43;21.00;99.90
2212;DHT22;48849;48.758;9.158;2023-07-30T06:39:09;21.00;99.90
2212;DHT22;48849;48.758;9.158;2023-07-30T06:41:36;20.90;99.90
2212;DHT22;48849;48.758;9.158;2023-07-30T06:44:03;21.20;99.90
2212;DHT22;48849;48.758;9.158;2023-07-30T06:46:31;21.20;99.90
2212;DHT22;48849;48.758;9.158;2023-07-30T06:48:58;21.00;99.90
2212;DHT22;48849;48.758;9.158;2023-07-30T06:51:25;21.10;99.90
2212;DHT22;48849;48.758;9.158;2023-07-30T06:53:52;21.00;99.90
2212;DHT22;48849;48.758;9.158;2023-07-30T06:56:19;21.00;99.90
2212;DHT22;48849;48.758;9.158;2023-07-30T06:58:46;21.10;99.90
2212;DHT22;48849;48.758;9.158;2023-07-30T07:01:13;21.40;99.90
2212;DHT22;48849;48.758;9.158;2023-07-30T07:03:41;21.10;99.90
2212;DHT22;48849;48.758;9.158;2023-07-30T07:06:08;21.10;99.90
2212;DHT22;48849;48.758;9.158;2023-07-30T07:08:35;21.10;99.90
2212;DHT22;48849;48.758;9.158;2023-07-30T07:11:02;21.10;99.90
2212;DHT22;48849;48.758;9.158;2023-07-30T07:13:29;21.10;99.90
2212;DHT22;48849;48.758;9.158;2023-07-30T07:15:55;21.20;99.90
2212;DHT22;48849;48.758;9.158;2023-07-30T07:18:22;21.20;99.90
2212;DHT22;48849;48.758;9.158;2023-07-30T07:20:50;21.20;99.90
2212;DHT22;48849;48.758;9.158;2023-07-30T07:23:17;21.10;99.90
2212;DHT22;48849;48.758;9.158;2023-07-30T07:25:44;21.20;99.90
2212;DHT22;48849;48.758;9.158;2023-07-30T07:28:10;21.20;99.90
2212;DHT22;48849;48.758;9.158;2023-07-30T07:30:37;21.20;99.90
2212;DHT22;48849;48.758;9.158;2023-07-30T07:33:04;21.60;99.90
2212;DHT22;48849;48.758;9.158;2023-07-30T07:35:31;21.20;99.90
2212;DHT22;48849;48.758;9.158;2023-07-30T07:38:03;21.20;99.90
2212;DHT22;48849;48.758;9.158;2023-07-30T07:40:36;21.30;99.90
2212;DHT22;48849;48.758;9.158;2023-07-30T07:43:04;20.70;99.90
2212;DHT22;48849;48.758;9.158;2023-07-30T07:45:31;21.00;99.90
2212;DHT22;48849;48.758;9.158;2023-07-30T07:47:58;21.10;99.90
2212;DHT22;48849;48.758;9.158;2023-07-30T07:50:25;21.10;99.90
2212;DHT22;48849;48.758;9.158;2023-07-30T07:52:52;21.10;99.90
2212;DHT22;48849;48.758;9.158;2023-07-30T07:55:20;21.10;99.90
2212;DHT22;48849;48.758;9.158;2023-07-30T07:57:46;21.10;99.90
2212;DHT22;48849;48.758;9.158;2023-07-30T08:00:13;21.20;99.90
2212;DHT22;48849;48.758;9.158;2023-07-30T08:02:46;21.20;99.90
2212;DHT22;48849;48.758;9.158;2023-07-30T08:05:13;21.40;99.90
2212;DHT22;48849;48.758;9.158;2023-07-30T08:07:40;21.20;99.90
2212;DHT22;48849;48.758;9.158;2023-07-30T08:10:07;21.20;99.90
2212;DHT22;48849;48.758;9.158;2023-07-30T08:12:36;21.20;99.90
2212;DHT22;48849;48.758;9.158;2023-07-30T08:15:03;21.50;99.90
2212;DHT22;48849;48.758;9.158;2023-07-30T08:17:30;21.20;99.90
2212;DHT22;48849;48.758;9.158;2023-07-30T08:20:00;21.00;99.90
2212;DHT22;48849;48.758;9.158;2023-07-30T08:22:30;21.30;99.90
2212;DHT22;48849;48.758;9.158;2023-07-30T08:24:57;21.30;99.90
2212;DHT22;48849;48.758;9.158;2023-07-30T08:27:27;21.30;99.90
2212;DHT22;48849;48.758;9.158;2023-07-30T08:29:57;21.20;99.90
2212;DHT22;48849;48.758;9.158;2023-07-30T08:32:24;21.30;99.90
2212;DHT22;48849;48.758;9.158;2023-07-30T08:34:51;21.40;99.90
2212;DHT22;48849;48.758;9.158;2023-07-30T08:37:19;21.40;99.90
2212;DHT22;48849;48.758;9.158;2023-07-30T08:39:47;21.40;99.90
2212;DHT22;48849;48.758;9.158;2023-07-30T08:42:15;21.40;99.90
2212;DHT22;48849;48.758;9.158;2023-07-30T08:44:43;21.40;99.90
2212;DHT22;48849;48.758;9.158;2023-07-30T08:47:11;21.50;99.90
2212;DHT22;48849;48.758;9.158;2023-07-30T08:49:38;21.50;99.90
2212;DHT22;48849;48.758;9.158;2023-07-30T08:52:11;21.50;99.90
2212;DHT22;48849;48.758;9.158;2023-07-30T08:54:39;21.50;99.90
2212;DHT22;48849;48.758;9.158;2023-07-30T08:57:07;21.50;99.90
2212;DHT22;48849;48.758;9.158;2023-07-30T08:59:39;21.50;99.90
2212;DHT22;48849;48.758;9.158;2023-07-30T09:02:13;21.50;99.90
2212;DHT22;48849;48.758;9.158;2023-07-30T09:04:45;21.50;99.90
2212;DHT22;48849;48.758;9.158;2023-07-30T09:07:13;21.50;99.90
2212;DHT22;48849;48.758;9.158;2023-07-30T09:09:40;21.50;99.90
2212;DHT22;48849;48.758;9.158;2023-07-30T09:12:13;21.60;99.90
2212;DHT22;48849;48.758;9.158;2023-07-30T09:14:40;21.50;99.90
2212;DHT22;48849;48.758;9.158;2023-07-30T09:17:10;21.60;99.90
2212;DHT22;48849;48.758;9.158;2023-07-30T09:19:38;21.60;99.90
2212;DHT22;48849;48.758;9.158;2023-07-30T09:22:06;21.70;99.90
2212;DHT22;48849;48.758;9.158;2023-07-30T09:24:33;21.70;99.90
2212;DHT22;48849;48.758;9.158;2023-07-30T09:27:02;21.80;99.90
2212;DHT22;48849;48.758;9.158;2023-07-30T09:29:29;21.80;99.90
2212;DHT22;48849;48.758;9.158;2023-07-30T09:31:55;21.80;99.90
2212;DHT22;48849;48.758;9.158;2023-07-30T09:34:23;21.80;99.90
2212;DHT22;48849;48.758;9.158;2023-07-30T09:36:53;21.80;99.90
2212;DHT22;48849;48.758;9.158;2023-07-30T09:39:21;21.70;99.90
2212;DHT22;48849;48.758;9.158;2023-07-30T09:42:00;21.70;99.90
2212;DHT22;48849;48.758;9.158;2023-07-30T09:44:32;21.70;99.90
2212;DHT22;48849;48.758;9.158;2023-07-30T09:50:31;21.70;99.90
2212;DHT22;48849;48.758;9.158;2023-07-30T09:59:57;21.60;99.90
2212;DHT22;48849;48.758;9.158;2023-07-30T10:03:06;21.60;99.90
2212;DHT22;48849;48.758;9.158;2023-07-30T10:05:17;21.60;99.90
2212;DHT22;48849;48.758;9.158;2023-07-30T10:07:49;21.60;99.90
2212;DHT22;48849;48.758;9.158;2023-07-30T10:10:18;21.70;99.90
2212;DHT22;48849;48.758;9.158;2023-07-30T10:12:45;21.70;99.90
2212;DHT22;48849;48.758;9.158;2023-07-30T10:15:18;21.70;99.90
2212;DHT22;48849;48.758;9.158;2023-07-30T10:17:46;21.70;99.90
2212;DHT22;48849;48.758;9.158;2023-07-30T10:20:23;21.80;99.90
2212;DHT22;48849;48.758;9.158;2023-07-30T10:22:54;21.80;99.90
2212;DHT22;48849;48.758;9.158;2023-07-30T10:25:28;21.90;99.90
2212;DHT22;48849;48.758;9.158;2023-07-30T10:27:55;21.90;99.90
2212;DHT22;48849;48.758;9.158;2023-07-30T10:30:30;21.90;99.90
2212;DHT22;48849;48.758;9.158;2023-07-30T10:33:02;21.80;99.90
2212;DHT22;48849;48.758;9.158;2023-07-30T10:35:39;21.80;99.90
2212;DHT22;48849;48.758;9.158;2023-07-30T10:38:14;21.90;99.90
2212;DHT22;48849;48.758;9.158;2023-07-30T10:40:41;21.90;99.90
2212;DHT22;48849;48.758;9.158;2023-07-30T10:43:14;22.00;99.90
2212;DHT22;48849;48.758;9.158;2023-07-30T10:45:49;21.90;99.90
2212;DHT22;48849;48.758;9.158;2023-07-30T10:48:17;21.90;99.90
2212;DHT22;48849;48.758;9.158;2023-07-30T10:50:43;22.00;99.90
2212;DHT22;48849;48.758;9.158;2023-07-30T10:53:14;22.00;99.90
2212;DHT22;48849;48.758;9.158;2023-07-30T10:55:41;21.90;99.90
2212;DHT22;48849;48.758;9.158;2023-07-30T10:58:08;22.00;99.90
2212;DHT22;48849;48.758;9.158;2023-07-30T11:00:37;21.90;99.90
2212;DHT22;48849;48.758;9.158;2023-07-30T11:03:05;21.90;99.90
2212;DHT22;48849;48.758;9.158;2023-07-30T11:05:32;22.00;99.90
2212;DHT22;48849;48.758;9.158;2023-07-30T11:08:05;22.00;99.90
2212;DHT22;48849;48.758;9.158;2023-07-30T11:10:42;22.00;99.90
2212;DHT22;48849;48.758;9.158;2023-07-30T11:13:09;22.00;99.90
2212;DHT22;48849;48.758;9.158;2023-07-30T11:15:40;21.90;99.90
2212;DHT22;48849;48.758;9.158;2023-07-30T11:18:09;22.00;99.90
2212;DHT22;48849;48.758;9.158;2023-07-30T11:20:36;22.00;99.90
2212;DHT22;48849;48.758;9.158;2023-07-30T11:25:48;22.00;99.90
2212;DHT22;48849;48.758;9.158;2023-07-30T11:28:27;22.00;99.90
2212;DHT22;48849;48.758;9.158;2023-07-30T11:30:56;22.00;99.90
2212;DHT22;48849;48.758;9.158;2023-07-30T11:33:24;22.10;99.90
2212;DHT22;48849;48.758;9.158;2023-07-30T11:35:55;22.20;99.90
2212;DHT22;48849;48.758;9.158;2023-07-30T11:38:23;22.40;99.90
2212;DHT22;48849;48.758;9.158;2023-07-30T11:40:50;22.50;99.90
2212;DHT22;48849;48.758;9.158;2023-07-30T11:43:18;22.70;99.90
2212;DHT22;48849;48.758;9.158;2023-07-30T11:45:45;22.90;99.90
2212;DHT22;48849;48.758;9.158;2023-07-30T11:48:12;23.10;99.90
2212;DHT22;48849;48.758;9.158;2023-07-30T11:50:48;23.20;99.90
2212;DHT22;48849;48.758;9.158;2023-07-30T11:53:16;23.30;99.90
2212;DHT22;48849;48.758;9.158;2023-07-30T11:55:43;23.40;99.90
2212;DHT22;48849;48.758;9.158;2023-07-30T11:58:11;23.50;99.90
2212;DHT22;48849;48.758;9.158;2023-07-30T12:00:39;23.60;99.90
2212;DHT22;48849;48.758;9.158;2023-07-30T12:03:09;23.50;99.90
2212;DHT22;48849;48.758;9.158;2023-07-30T12:05:37;23.40;99.90
2212;DHT22;48849;48.758;9.158;2023-07-30T12:08:13;23.30;99.90
2212;DHT22;48849;48.758;9.158;2023-07-30T12:10:43;23.20;99.90
2212;DHT22;48849;48.758;9.158;2023-07-30T12:13:15;23.20;99.90
2212;DHT22;48849;48.758;9.158;2023-07-30T12:15:44;23.20;99.90
2212;DHT22;48849;48.758;9.158;2023-07-30T12:18:11;23.20;99.90
2212;DHT22;48849;48.758;9.158;2023-07-30T12:20:38;23.20;99.90
2212;DHT22;48849;48.758;9.158;2023-07-30T12:23:06;23.30;99.90
2212;DHT22;48849;48.758;9.158;2023-07-30T12:25:33;23.50;99.90
2212;DHT22;48849;48.758;9.158;2023-07-30T12:27:59;23.60;99.90
2212;DHT22;48849;48.758;9.158;2023-07-30T12:30:26;23.80;99.90
2212;DHT22;48849;48.758;9.158;2023-07-30T12:32:53;23.90;99.90
2212;DHT22;48849;48.758;9.158;2023-07-30T12:35:20;24.00;99.90
2212;DHT22;48849;48.758;9.158;2023-07-30T12:37:47;24.20;99.90
2212;DHT22;48849;48.758;9.158;2023-07-30T12:40:15;24.30;99.90
2212;DHT22;48849;48.758;9.158;2023-07-30T12:42:42;24.50;99.90
2212;DHT22;48849;48.758;9.158;2023-07-30T12:45:10;24.50;99.90
2212;DHT22;48849;48.758;9.158;2023-07-30T12:47:36;24.60;99.90
2212;DHT22;48849;48.758;9.158;2023-07-30T12:50:04;24.70;99.90
2212;DHT22;48849;48.758;9.158;2023-07-30T12:52:33;24.80;99.90
2212;DHT22;48849;48.758;9.158;2023-07-30T12:55:00;25.00;99.90
2212;DHT22;48849;48.758;9.158;2023-07-30T12:57:28;25.00;99.90
2212;DHT22;48849;48.758;9.158;2023-07-30T12:59:55;25.00;99.90
2212;DHT22;48849;48.758;9.158;2023-07-30T13:02:22;24.90;99.90
2212;DHT22;48849;48.758;9.158;2023-07-30T13:04:48;24.80;99.90
2212;DHT22;48849;48.758;9.158;2023-07-30T13:07:15;24.70;99.90
2212;DHT22;48849;48.758;9.158;2023-07-30T13:09:42;24.70;99.90
2212;DHT22;48849;48.758;9.158;2023-07-30T13:12:09;24.60;99.90
2212;DHT22;48849;48.758;9.158;2023-07-30T13:14:37;24.50;99.90
2212;DHT22;48849;48.758;9.158;2023-07-30T13:17:04;24.40;99.90
2212;DHT22;48849;48.758;9.158;2023-07-30T13:19:33;24.40;99.90
2212;DHT22;48849;48.758;9.158;2023-07-30T13:22:02;24.30;99.90
2212;DHT22;48849;48.758;9.158;2023-07-30T13:24:35;24.20;99.90
2212;DHT22;48849;48.758;9.158;2023-07-30T13:27:02;24.20;99.90
2212;DHT22;48849;48.758;9.158;2023-07-30T13:29:29;24.50;99.90
2212;DHT22;48849;48.758;9.158;2023-07-30T13:31:57;24.60;99.90
2212;DHT22;48849;48.758;9.158;2023-07-30T13:34:24;24.70;99.90
2212;DHT22;48849;48.758;9.158;2023-07-30T13:36:51;25.30;99.90
2212;DHT22;48849;48.758;9.158;2023-07-30T13:39:17;26.00;99.90
2212;DHT22;48849;48.758;9.158;2023-07-30T13:41:44;26.20;99.90
2212;DHT22;48849;48.758;9.158;2023-07-30T13:44:11;26.50;99.90
2212;DHT22;48849;48.758;9.158;2023-07-30T13:46:42;26.80;99.90
2212;DHT22;48849;48.758;9.158;2023-07-30T13:49:10;26.80;99.90
2212;DHT22;48849;48.758;9.158;2023-07-30T13:51:37;26.70;99.90
2212;DHT22;48849;48.758;9.158;2023-07-30T13:54:04;26.60;99.90
2212;DHT22;48849;48.758;9.158;2023-07-30T13:56:33;26.70;99.90
2212;DHT22;48849;48.758;9.158;2023-07-30T13:59:00;26.80;99.90
2212;DHT22;48849;48.758;9.158;2023-07-30T14:01:28;26.90;99.90
2212;DHT22;48849;48.758;9.158;2023-07-30T14:03:55;27.10;99.90
2212;DHT22;48849;48.758;9.158;2023-07-30T14:06:23;27.20;99.90
2212;DHT22;48849;48.758;9.158;2023-07-30T14:08:50;27.20;99.90
2212;DHT22;48849;48.758;9.158;2023-07-30T14:11:17;27.00;99.90
2212;DHT22;48849;48.758;9.158;2023-07-30T14:13:44;26.70;99.90
2212;DHT22;48849;48.758;9.158;2023-07-30T14:16:10;26.40;99.90
2212;DHT22;48849;48.758;9.158;2023-07-30T14:18:37;26.10;99.90
2212;DHT22;48849;48.758;9.158;2023-07-30T14:21:04;25.90;99.90
2212;DHT22;48849;48.758;9.158;2023-07-30T14:23:32;25.60;99.90
2212;DHT22;48849;48.758;9.158;2023-07-30T14:25:59;25.40;99.90
2212;DHT22;48849;48.758;9.158;2023-07-30T14:28:26;25.20;99.90
2212;DHT22;48849;48.758;9.158;2023-07-30T14:30:53;25.00;99.90
2212;DHT22;48849;48.758;9.158;2023-07-30T14:33:19;24.90;99.90
2212;DHT22;48849;48.758;9.158;2023-07-30T14:35:46;24.80;99.90
2212;DHT22;48849;48.758;9.158;2023-07-30T14:38:13;24.70;99.90
2212;DHT22;48849;48.758;9.158;2023-07-30T14:40:42;24.50;99.90
2212;DHT22;48849;48.758;9.158;2023-07-30T14:43:14;24.40;99.90
2212;DHT22;48849;48.758;9.158;2023-07-30T14:45:44;24.30;99.90
2212;DHT22;48849;48.758;9.158;2023-07-30T14:48:11;24.20;99.90
2212;DHT22;48849;48.758;9.158;2023-07-30T14:50:39;24.10;99.90
2212;DHT22;48849;48.758;9.158;2023-07-30T14:53:06;24.00;99.90
2212;DHT22;48849;48.758;9.158;2023-07-30T14:55:33;24.00;99.90
2212;DHT22;48849;48.758;9.158;2023-07-30T14:58:01;24.00;99.90
2212;DHT22;48849;48.758;9.158;2023-07-30T15:00:29;23.90;99.90
2212;DHT22;48849;48.758;9.158;2023-07-30T15:03:04;24.00;99.90
2212;DHT22;48849;48.758;9.158;2023-07-30T15:05:34;23.90;99.90
2212;DHT22;48849;48.758;9.158;2023-07-30T15:22:09;23.70;99.90
2212;DHT22;48849;48.758;9.158;2023-07-30T15:24:56;23.70;99.90
2212;DHT22;48849;48.758;9.158;2023-07-30T15:28:00;23.70;99.90
2212;DHT22;48849;48.758;9.158;2023-07-30T15:30:59;23.50;99.90
2212;DHT22;48849;48.758;9.158;2023-07-30T15:36:51;23.50;99.90
2212;DHT22;48849;48.758;9.158;2023-07-30T15:39:20;23.50;99.90
2212;DHT22;48849;48.758;9.158;2023-07-30T15:41:47;23.50;99.90
2212;DHT22;48849;48.758;9.158;2023-07-30T15:51:23;23.40;99.90
2212;DHT22;48849;48.758;9.158;2023-07-30T15:54:25;23.30;99.90
2212;DHT22;48849;48.758;9.158;2023-07-30T16:00:32;23.30;99.90
2212;DHT22;48849;48.758;9.158;2023-07-30T16:03:00;23.20;99.90
2212;DHT22;48849;48.758;9.158;2023-07-30T16:05:29;23.20;99.90
2212;DHT22;48849;48.758;9.158;2023-07-30T16:14:38;23.30;99.90
2212;DHT22;48849;48.758;9.158;2023-07-30T16:17:07;23.20;99.90
2212;DHT22;48849;48.758;9.158;2023-07-30T16:19:36;23.20;99.90
2212;DHT22;48849;48.758;9.158;2023-07-30T16:22:08;23.20;99.90
2212;DHT22;48849;48.758;9.158;2023-07-30T16:24:36;23.20;99.90
2212;DHT22;48849;48.758;9.158;2023-07-30T16:27:13;23.20;99.90
2212;DHT22;48849;48.758;9.158;2023-07-30T16:29:46;23.20;99.90
2212;DHT22;48849;48.758;9.158;2023-07-30T16:32:16;23.20;99.90
2212;DHT22;48849;48.758;9.158;2023-07-30T16:34:44;23.20;99.90
2212;DHT22;48849;48.758;9.158;2023-07-30T16:37:14;23.20;99.90
2212;DHT22;48849;48.758;9.158;2023-07-30T16:39:52;23.20;99.90